Beltana — VNFN — position and weather

sailwx.info

Track history (hours):
 
Tides and Currents Weather Stations Pressure Air Temp Water Temp Dewpoint Dewpoint Depression Visibility Wind Speed Wind Dir Waves Ship Positions

Beltana

Last reported at 2017-Nov-23 23:31 UTC. Time now 2017-Nov-24 13:05 UTC.
Position S 27°24' E 153°09'.

Length 31 m; draft 5 m.

Type: Tug. MMSI: 503354000.

Date/timePositionNaut miles runAvg speedWind from/ knotsBaromVisibWave heightAir tempDewpointWater temp
2017-Nov-23 23:31S 27°24' E 153°09'0 0.0
2017-Nov-23 12:19S 27°24' E 153°09'2 6.6
2017-Nov-23 12:00S 27°22' E 153°10'0 0.4
2017-Nov-23 11:30S 27°22' E 153°10'1 2.2
2017-Nov-23 11:00S 27°21' E 153°11'1 0.0
2017-Nov-22 21:13S 27°22' E 153°11'1 2.8
2017-Nov-22 20:49S 27°21' E 153°11'3 9.6
2017-Nov-22 20:30S 27°23' E 153°10'  
2017-Nov-19 23:55S 27°24' E 153°09'0 0.1
2017-Nov-19 22:39S 27°24' E 153°09'0 0.0
2017-Nov-19 17:28S 27°24' E 153°09'0 0.0
2017-Nov-19 15:28S 27°24' E 153°09'0 0.0
2017-Nov-19 13:56S 27°24' E 153°09'3 5.7
2017-Nov-19 13:30S 27°22' E 153°11'0 0.3
2017-Nov-19 13:00S 27°22' E 153°11'1 1.5
2017-Nov-19 12:30S 27°21' E 153°11'3 2.0
2017-Nov-19 10:49S 27°24' E 153°09'0 0.0
2017-Nov-18 18:28S 27°24' E 153°09'0 0.0
2017-Nov-18 17:58S 27°24' E 153°09'0 0.0
2017-Nov-18 17:16S 27°24' E 153°09'0 0.0
2017-Nov-18 16:58S 27°24' E 153°09'0 0.0
2017-Nov-18 16:28S 27°24' E 153°09'0 0.0
2017-Nov-18 15:55S 27°24' E 153°09'0 0.0
2017-Nov-18 15:28S 27°24' E 153°09'0 0.0
2017-Nov-18 14:52S 27°24' E 153°09'0 0.0
2017-Nov-18 14:28S 27°24' E 153°09'0 0.0
2017-Nov-18 13:58S 27°24' E 153°09'0 0.0
2017-Nov-18 13:01S 27°24' E 153°09'0 0.0
2017-Nov-18 12:58S 27°24' E 153°09'0 0.0
2017-Nov-18 12:30S 27°24' E 153°09'0 0.8
2017-Nov-18 12:00S 27°24' E 153°09'1 2.3
2017-Nov-18 11:26S 27°23' E 153°09'0 0.5
2017-Nov-18 11:00S 27°23' E 153°10'1 1.9
2017-Nov-18 10:29S 27°24' E 153°09'0 0.0
2017-Nov-18 09:56S 27°24' E 153°09'0 0.0
2017-Nov-18 09:20S 27°24' E 153°09'0 0.0
2017-Nov-18 08:20S 27°24' E 153°09'0 0.0
2017-Nov-18 06:53S 27°24' E 153°09'1 3.3
2017-Nov-18 06:28S 27°23' E 153°10'3 0.3
2017-Nov-17 20:27S 27°25' E 153°08'4 7.0
2017-Nov-17 19:52S 27°27' E 153°04'2 2.9
2017-Nov-17 19:19S 27°27' E 153°06'3 6.9
2017-Nov-17 18:49S 27°25' E 153°09'3 8.3
2017-Nov-17 18:30S 27°22' E 153°10'0 0.7
2017-Nov-17 17:55S 27°22' E 153°11'0 0.0
2017-Nov-17 17:17S 27°22' E 153°11'0 0.0
2017-Nov-17 16:51S 27°22' E 153°11'0 0.0
2017-Nov-17 14:47S 27°22' E 153°10'0 0.3
2017-Nov-17 14:29S 27°22' E 153°11'1 0.0
2017-Nov-16 03:14S 27°22' E 153°10'1 2.2
2017-Nov-16 03:00S 27°22' E 153°10'1 2.7
2017-Nov-16 02:30S 27°21' E 153°11'3 5.1
2017-Nov-16 01:59S 27°23' E 153°09'1 0.1
2017-Nov-15 18:17S 27°24' E 153°09'1 2.7
2017-Nov-15 18:00S 27°23' E 153°09'1 2.1
2017-Nov-15 17:22S 27°22' E 153°10'0 0.0
2017-Nov-15 16:19S 27°22' E 153°10'0 0.0
2017-Nov-15 15:55S 27°22' E 153°10'0 0.0
2017-Nov-15 14:49S 27°22' E 153°10'0 0.0
2017-Nov-15 14:25S 27°22' E 153°10'0 0.0
2017-Nov-15 13:55S 27°22' E 153°10'0 0.0
2017-Nov-15 13:22S 27°22' E 153°10'1 1.8
2017-Nov-15 13:00S 27°22' E 153°11'1 2.9
2017-Nov-15 12:30S 27°23' E 153°10'1 0.2
2017-Nov-15 07:09S 27°24' E 153°09'1 7.0
2017-Nov-15 07:00S 27°23' E 153°10'1 2.2
2017-Nov-15 06:30S 27°22' E 153°10'0 0.0
2017-Nov-15 05:43S 27°22' E 153°10'0 0.0
2017-Nov-15 04:27S 27°22' E 153°10'1 2.0
2017-Nov-15 03:48S 27°21' E 153°11'1 4.1
2017-Nov-15 03:30S 27°22' E 153°10'0 0.0
2017-Nov-15 02:16S 27°22' E 153°10'2 5.7
2017-Nov-15 01:59S 27°23' E 153°09'1 1.4
2017-Nov-15 01:22S 27°23' E 153°10'2 0.1
2017-Nov-14 13:06S 27°24' E 153°09'0 4.7
2017-Nov-14 13:00S 27°24' E 153°09'2 3.9
2017-Nov-14 12:30S 27°22' E 153°10'1 1.5
2017-Nov-14 12:00S 27°21' E 153°11'1 2.4
2017-Nov-14 11:30S 27°22' E 153°10'1 1.6
2017-Nov-14 11:00S 27°22' E 153°11'0 0.3
2017-Nov-14 10:05S 27°22' E 153°11'0 0.0
2017-Nov-14 09:57S 27°22' E 153°11'0 0.0
2017-Nov-14 09:29S 27°22' E 153°11'0 0.0
2017-Nov-14 08:59S 27°22' E 153°11'0 0.2
2017-Nov-14 08:25S 27°22' E 153°11'0 0.5
2017-Nov-14 08:00S 27°22' E 153°10'3 1.0
2017-Nov-14 05:33S 27°24' E 153°09'4 5.1
2017-Nov-14 04:47S 27°27' E 153°06'0 0.1
2017-Nov-14 03:26S 27°27' E 153°06'  
Track history (hours):
 
Tides and Currents Weather Stations Pressure Air Temp Water Temp Dewpoint Dewpoint Depression Visibility Wind Speed Wind Dir Waves Ship Positions

Beltana

Last reported at 2017-Nov-23 23:31 UTC. Time now 2017-Nov-24 13:05 UTC.
Position S 27°24' E 153°09'.

Length 31 m; draft 5 m.

Type: Tug. MMSI: 503354000.

Date/timePositionNaut miles runAvg speedWind from/ knotsBaromVisibWave heightAir tempDewpointWater temp
2017-Nov-23 23:31S 27°24' E 153°09'0 0.0
2017-Nov-23 12:19S 27°24' E 153°09'2 6.6
2017-Nov-23 12:00S 27°22' E 153°10'0 0.4
2017-Nov-23 11:30S 27°22' E 153°10'1 2.2
2017-Nov-23 11:00S 27°21' E 153°11'1 0.0
2017-Nov-22 21:13S 27°22' E 153°11'1 2.8
2017-Nov-22 20:49S 27°21' E 153°11'3 9.6
2017-Nov-22 20:30S 27°23' E 153°10'  
2017-Nov-19 23:55S 27°24' E 153°09'0 0.1
2017-Nov-19 22:39S 27°24' E 153°09'0 0.0
2017-Nov-19 17:28S 27°24' E 153°09'0 0.0
2017-Nov-19 15:28S 27°24' E 153°09'0 0.0
2017-Nov-19 13:56S 27°24' E 153°09'3 5.7
2017-Nov-19 13:30S 27°22' E 153°11'0 0.3
2017-Nov-19 13:00S 27°22' E 153°11'1 1.5
2017-Nov-19 12:30S 27°21' E 153°11'3 2.0
2017-Nov-19 10:49S 27°24' E 153°09'0 0.0
2017-Nov-18 18:28S 27°24' E 153°09'0 0.0
2017-Nov-18 17:58S 27°24' E 153°09'0 0.0
2017-Nov-18 17:16S 27°24' E 153°09'0 0.0
2017-Nov-18 16:58S 27°24' E 153°09'0 0.0
2017-Nov-18 16:28S 27°24' E 153°09'0 0.0
2017-Nov-18 15:55S 27°24' E 153°09'0 0.0
2017-Nov-18 15:28S 27°24' E 153°09'0 0.0
2017-Nov-18 14:52S 27°24' E 153°09'0 0.0
2017-Nov-18 14:28S 27°24' E 153°09'0 0.0
2017-Nov-18 13:58S 27°24' E 153°09'0 0.0
2017-Nov-18 13:01S 27°24' E 153°09'0 0.0
2017-Nov-18 12:58S 27°24' E 153°09'0 0.0
2017-Nov-18 12:30S 27°24' E 153°09'0 0.8
2017-Nov-18 12:00S 27°24' E 153°09'1 2.3
2017-Nov-18 11:26S 27°23' E 153°09'0 0.5
2017-Nov-18 11:00S 27°23' E 153°10'1 1.9
2017-Nov-18 10:29S 27°24' E 153°09'0 0.0
2017-Nov-18 09:56S 27°24' E 153°09'0 0.0
2017-Nov-18 09:20S 27°24' E 153°09'0 0.0
2017-Nov-18 08:20S 27°24' E 153°09'0 0.0
2017-Nov-18 06:53S 27°24' E 153°09'1 3.3
2017-Nov-18 06:28S 27°23' E 153°10'3 0.3
2017-Nov-17 20:27S 27°25' E 153°08'4 7.0
2017-Nov-17 19:52S 27°27' E 153°04'2 2.9
2017-Nov-17 19:19S 27°27' E 153°06'3 6.9
2017-Nov-17 18:49S 27°25' E 153°09'3 8.3
2017-Nov-17 18:30S 27°22' E 153°10'0 0.7
2017-Nov-17 17:55S 27°22' E 153°11'0 0.0
2017-Nov-17 17:17S 27°22' E 153°11'0 0.0
2017-Nov-17 16:51S 27°22' E 153°11'0 0.0
2017-Nov-17 14:47S 27°22' E 153°10'0 0.3
2017-Nov-17 14:29S 27°22' E 153°11'1 0.0
2017-Nov-16 03:14S 27°22' E 153°10'1 2.2
2017-Nov-16 03:00S 27°22' E 153°10'1 2.7
2017-Nov-16 02:30S 27°21' E 153°11'3 5.1
2017-Nov-16 01:59S 27°23' E 153°09'1 0.1
2017-Nov-15 18:17S 27°24' E 153°09'1 2.7
2017-Nov-15 18:00S 27°23' E 153°09'1 2.1
2017-Nov-15 17:22S 27°22' E 153°10'0 0.0
2017-Nov-15 16:19S 27°22' E 153°10'0 0.0
2017-Nov-15 15:55S 27°22' E 153°10'0 0.0
2017-Nov-15 14:49S 27°22' E 153°10'0 0.0
2017-Nov-15 14:25S 27°22' E 153°10'0 0.0
2017-Nov-15 13:55S 27°22' E 153°10'0 0.0
2017-Nov-15 13:22S 27°22' E 153°10'1 1.8
2017-Nov-15 13:00S 27°22' E 153°11'1 2.9
2017-Nov-15 12:30S 27°23' E 153°10'1 0.2
2017-Nov-15 07:09S 27°24' E 153°09'1 7.0
2017-Nov-15 07:00S 27°23' E 153°10'1 2.2
2017-Nov-15 06:30S 27°22' E 153°10'0 0.0
2017-Nov-15 05:43S 27°22' E 153°10'0 0.0
2017-Nov-15 04:27S 27°22' E 153°10'1 2.0
2017-Nov-15 03:48S 27°21' E 153°11'1 4.1
2017-Nov-15 03:30S 27°22' E 153°10'0 0.0
2017-Nov-15 02:16S 27°22' E 153°10'2 5.7
2017-Nov-15 01:59S 27°23' E 153°09'1 1.4
2017-Nov-15 01:22S 27°23' E 153°10'2 0.1
2017-Nov-14 13:06S 27°24' E 153°09'0 4.7
2017-Nov-14 13:00S 27°24' E 153°09'2 3.9
2017-Nov-14 12:30S 27°22' E 153°10'1 1.5
2017-Nov-14 12:00S 27°21' E 153°11'1 2.4
2017-Nov-14 11:30S 27°22' E 153°10'1 1.6
2017-Nov-14 11:00S 27°22' E 153°11'0 0.3
2017-Nov-14 10:05S 27°22' E 153°11'0 0.0
2017-Nov-14 09:57S 27°22' E 153°11'0 0.0
2017-Nov-14 09:29S 27°22' E 153°11'0 0.0
2017-Nov-14 08:59S 27°22' E 153°11'0 0.2
2017-Nov-14 08:25S 27°22' E 153°11'0 0.5
2017-Nov-14 08:00S 27°22' E 153°10'3 1.0
2017-Nov-14 05:33S 27°24' E 153°09'4 5.1
2017-Nov-14 04:47S 27°27' E 153°06'0 0.1
2017-Nov-14 03:26S 27°27' E 153°06'  

Dump ship's entire track history